Terminal Aerodrome Forecast
Issued by NWS

Home | Current Version | Previous Version | Text Only | Print | Product List | Glossary On
Versions: 1 2 3 4 5 6 7 8 9 10 11 12 13 14 15 16 17 18 19 20 21 22 23 24
000
FTUS42 KGSP 231136
TAFHKY
TAF
KHKY 231136Z 2312/2412 36004KT 2SM BR BKN006
      TEMPO 2312/2316 3/4SM BR BKN005
     FM231600 18005KT P6SM BKN015
     FM231900 19005KT P6SM BKN040
     FM240700 20004KT 6SM BR BKN110
     FM241100 20005KT 5SM BR BKN045=

USA.gov is the U.S. government's official web portal to all federal, state and local government web resources and services.